Tuscarora, Nevada
Current Conditions -  °F | °C
As of 5:37 PM on Tuesday 27 Jan 2015 (Local Time) from KEKO Reporting Station
Overcast Overcast  
Wind Chill: 38°   Ceiling: 2700
Heat Index: 42°   Visibility: 10mi
Dew Point: 39°   Wind: 7mph
Humidity: 89%   Direction: 220°SW
Pressure: 30.13"   Gusts: NA
Location:  41.31°N, 116.22°W
Report Text: KEKO 280137Z AUTO 22006KT 10SM FEW020 BKN027 OVC047 06/04 A3013 RMK AO2 RAE20 P0000 T00560039
Loading
Personal Weather Stations






























Interactive Weather Map New forecast layout! Learn more

10-Day Weather Forecast

Advertisements
Track Severe Weather on mobile